Latest Coastal Weather Observations for Maroochydore

IDQ60701

Issued at 1:12 pm EST Wednesday 1 April 2015 (issued every 10 minutes, with the page automatically refreshed every 10 minutes)

About coastal observations | Map of coastal stations | Coastal observations for QLD | Marine services | Other Formats
Station Details ID: 040861 Name: SUNSHINE COAST AIRPORT Lat: -26.60 Lon: 153.09 Height: 3.3 m
Data from the previous 72 hours. | See also: Recent months at Maroochydore
Date/Time
EST
Temp

°C
Wind Pressure Rain
since 9am
mm
Weather Cloud Vis
km
Sea
Height
m
Swell
Dir
 
Speed
knots
Gust
knots
hPa Trend Height
m
Period
s
Dir
01/01:00pm 21.0 SSW 8 10 1019.0 - 14.0 - Partly cloudy 10 - - - -
01/12:30pm 20.4 SW 7 10 1019.6 - 13.8 - Partly cloudy 10 - - - -
01/12:00pm 20.2 SW 9 12 1020.0 - 13.2 - Cloudy 10 - - - -
01/11:58am 20.2 SW 10 12 1020.0 - 13.2 - Partly cloudy 10 - - - -
01/11:38am 19.9 WSW 8 10 1020.4 - 12.0 - Partly cloudy 4 - - - -
01/11:36am 20.0 SW 8 10 1020.6 - 10.8 - Partly cloudy 6 - - - -
01/11:30am 20.1 WSW 9 11 1020.4 - 9.6 - Partly cloudy 10 - - - -
01/11:00am 20.3 SW 6 10 1021.1 - 9.2 - Partly cloudy 10 - - - -
01/10:52am 20.6 S 7 9 1021.1 - 8.8 - Partly cloudy 10 - - - -
01/10:30am 21.6 E 8 11 1021.5 - 8.2 - Partly cloudy 9 - - - -
01/10:07am 21.1 E 12 18 1021.9 - 7.2 - Partly cloudy 8 - - - -
01/10:00am 20.9 E 12 18 1021.9 - 6.8 - Partly cloudy 7 - - - -
01/09:34am 21.0 E 17 27 1022.1 - 2.2 - Partly cloudy 6 - - - -
01/09:32am 21.3 E 15 25 1022.1 - 2.0 - Partly cloudy 7 - - - -
01/09:14am 20.8 E 14 18 1021.8 - 0.8 - Partly cloudy 9 - - - -
01/09:07am 20.8 E 14 19 1021.9 - 0.6 - Partly cloudy 8 - - - -
01/09:00am 20.9 E 13 21 1022.1 - 65.6 - Cloudy 7 - - - -
01/08:30am 19.9 N 10 16 1021.6 - 63.2 - Partly cloudy 5 - - - -
01/08:24am 20.4 N 12 16 1021.6 - 62.6 - Partly cloudy 2 - - - -
01/08:17am 20.8 ENE 15 23 1021.5 - 59.8 - Partly cloudy 2 - - - -
01/08:00am 20.9 E 9 12 1021.5 - 52.4 - Partly cloudy 5 - - - -
01/07:43am 20.6 NE 13 19 1021.1 - 50.4 - Partly cloudy 6 - - - -
01/07:30am 20.7 NE 17 24 1020.9 - 50.0 - Partly cloudy 9 - - - -
01/07:00am 21.2 ENE 15 21 1020.3 - 49.2 - Partly cloudy 10 - - - -
01/06:15am 20.2 SSE 7 9 1019.5 - 49.2 - Partly cloudy 10 - - - -
01/06:00am 20.1 SW 10 14 1019.1 - 49.2 - Cloudy 6 - - - -
01/05:59am 20.0 SW 10 13 1019.1 - 49.0 - Partly cloudy 6 - - - -
01/05:57am 20.0 SW 9 13 1019.2 - 48.6 - Partly cloudy 9 - - - -
01/05:40am 19.9 SW 7 10 1019.2 - 48.0 - Partly cloudy 10 - - - -
01/05:30am 19.8 SW 8 11 1019.1 - 48.0 - Partly cloudy 10 - - - -
01/05:00am 19.7 WSW 9 12 1018.9 - 48.0 - Partly cloudy 10 - - - -
01/04:34am 20.0 SW 7 9 1018.6 - 47.8 - Partly cloudy 10 - - - -
01/04:33am 20.0 SW 7 9 1018.5 - 47.8 - Partly cloudy 10 - - - -
01/04:30am 19.9 SW 6 8 1018.5 - 47.8 - Partly cloudy 10 - - - -
01/04:25am 20.0 SSW 6 8 1018.4 - 47.8 - Partly cloudy 10 - - - -
01/04:00am 19.8 WSW 7 12 1018.9 - 43.0 - Partly cloudy 0.8 - - - -
01/03:33am 19.8 S 12 15 1018.6 - 18.4 - Partly cloudy 1 - - - -
01/03:30am 19.8 S 11 15 1018.6 - 14.2 - Partly cloudy 2 - - - -
01/03:00am 19.8 SW 6 8 1018.6 - 7.6 - Cloudy 5 - - - -
01/02:53am 19.8 SSW 7 10 1018.7 - 6.8 - Partly cloudy 6 - - - -
01/02:30am 19.8 SW 10 13 1018.6 - 5.6 - Partly cloudy 10 - - - -
01/02:20am 19.9 SSW 10 15 1018.8 - 5.6 - Partly cloudy 10 - - - -
01/02:00am 20.0 S 7 10 1019.2 - 4.8 - Partly cloudy 5 - - - -
01/01:59am 20.0 S 7 9 1019.3 - 4.4 - Partly cloudy 6 - - - -
01/01:30am 19.8 WSW 7 10 1019.1 - 3.6 - Partly cloudy 10 - - - -
01/01:10am 19.8 WSW 5 7 1019.5 - 3.6 - Partly cloudy 10 - - - -
01/01:00am 19.8 W 4 5 1019.7 - 3.6 - Partly cloudy 10 - - - -
01/12:45am 20.0 SW 6 8 1020.0 - 3.6 - Partly cloudy 8 - - - -
01/12:30am 20.0 WSW 7 9 1020.3 - 2.8 - Partly cloudy 10 - - - -
 
Date/Time
EST
Temp

°C
Wind Pressure Rain
since 9am
mm
Weather Cloud Vis
km
Sea
Height
m
Swell
Dir
 
Speed
knots
Gust
knots
hPa Trend Height
m
Period
s
Dir
31/11:43pm 20.4 WSW 7 10 1020.4 - 2.8 - Partly cloudy 10 - - - -
31/11:30pm 20.6 WSW 9 11 1020.5 - 2.6 - Partly cloudy 4 - - - -
31/11:22pm 20.9 NW 7 9 1020.7 - 1.2 - Partly cloudy 6 - - - -
31/11:00pm 21.2 SSW 8 11 1020.9 - 0.0 - Partly cloudy 10 - - - -
31/10:30pm 21.5 WSW 7 10 1020.8 - 0.0 - Partly cloudy 10 - - - -
31/10:00pm 22.4 E 13 19 1021.2 - 0.0 - Partly cloudy 10 - - - -
31/09:30pm 23.5 SE 10 14 1021.6 - 0.0 - Partly cloudy 10 - - - -
31/09:00pm 23.5 SE 11 15 1021.5 - 0.0 - Cloudy 10 - - - -
31/08:30pm 23.7 SE 14 18 1021.2 - 0.0 - Partly cloudy 10 - - - -
31/08:00pm 23.5 SE 15 19 1020.7 - 0.0 - Partly cloudy 10 - - - -
31/07:30pm 23.4 SE 13 16 1020.7 - 0.0 - Partly cloudy 10 - - - -
31/07:00pm 23.4 SE 12 20 1020.6 - 0.0 - Partly cloudy 10 - - - -
31/06:30pm 23.6 SE 13 17 1020.4 - 0.0 - Partly cloudy 10 - - - -
31/06:00pm 23.4 SE 13 18 1019.9 - 0.0 - Mostly clear 10 - - - -
31/05:30pm 23.1 SE 13 18 1019.8 - 0.0 - Partly cloudy 10 - - - -
31/05:00pm 22.9 SE 15 20 1019.8 - 0.0 - Partly cloudy 10 - - - -
31/04:30pm 23.1 SE 18 24 1019.9 - 0.0 - Partly cloudy 10 - - - -
31/04:26pm 23.0 SE 17 24 1019.9 - 0.0 - Partly cloudy 10 - - - -
31/04:00pm 24.3 SSE 11 14 1019.7 - 0.0 - Partly cloudy 10 - - - -
31/03:30pm 25.0 SE 11 14 1019.6 - 0.0 - Partly cloudy 10 - - - -
31/03:00pm 25.4 SE 9 13 1019.7 - 0.0 - Mostly clear 10 - - - -
31/02:30pm 25.6 SE 11 13 1019.8 - 0.0 - - 10 - - - -
31/02:00pm 25.5 SE 11 15 1020.0 - 0.0 - Partly cloudy 10 - - - -
31/01:30pm 24.6 E 12 17 1020.4 - 0.0 - Partly cloudy 10 - - - -
31/01:00pm 25.7 SE 9 11 1021.0 - 0.0 - Partly cloudy 10 - - - -
31/12:30pm 26.8 ESE 10 13 1020.8 - 0.0 - - 10 - - - -
31/12:00pm 26.1 ESE 10 14 1021.0 - 0.0 - - 10 - - - -
31/11:30am 26.0 ESE 10 13 1021.8 - 0.0 - Partly cloudy 10 - - - -
31/11:00am 26.1 ESE 11 15 1021.8 - 0.0 - Partly cloudy 10 - - - -
31/10:30am 25.4 ESE 9 12 1022.4 - 0.0 - Partly cloudy 10 - - - -
31/10:00am 26.1 E 10 14 1022.2 - 0.0 - Partly cloudy 10 - - - -
31/09:30am 26.2 E 9 13 1022.4 - 0.0 - Partly cloudy 10 - - - -
31/09:00am 25.0 E 6 10 1022.5 - 0.0 - Cloudy 10 - - - -
31/08:30am 24.7 ESE 6 10 1022.4 - 0.0 - Partly cloudy 10 - - - -
31/08:00am 24.7 ESE 7 10 1022.2 - 0.0 - Partly cloudy 10 - - - -
31/07:30am 22.1 CALM 0 0 1021.6 - 0.0 - Partly cloudy 10 - - - -
31/07:00am 22.6 SSW 5 8 1021.5 - 0.0 - Partly cloudy 10 - - - -
31/06:30am 24.1 E 9 13 1021.2 - 0.0 - Partly cloudy 10 - - - -
31/06:00am 23.8 E 10 14 1020.8 - 0.0 - Partly cloudy 10 - - - -
31/05:30am 23.4 E 7 10 1020.7 - 0.0 - Partly cloudy 10 - - - -
31/05:00am 20.4 S 3 4 1020.7 - 0.0 - Partly cloudy 10 - - - -
31/04:30am 19.9 WSW 5 7 1020.5 - 0.0 - Partly cloudy 10 - - - -
31/04:00am 19.8 SW 2 5 1020.6 - 0.0 - Partly cloudy 10 - - - -
31/03:30am 19.6 W 5 8 1020.6 - 0.0 - Partly cloudy 10 - - - -
31/03:00am 19.6 WSW 6 8 1020.7 - 0.0 - Mostly clear 10 - - - -
31/02:30am 19.6 W 6 8 1020.8 - 0.0 - Partly cloudy 10 - - - -
31/02:00am 20.3 WSW 4 6 1021.1 - 0.0 - Partly cloudy 10 - - - -
31/01:30am 23.8 E 8 10 1021.5 - 0.0 - Partly cloudy 10 - - - -
31/01:00am 23.9 E 9 12 1021.7 - 0.0 - Partly cloudy 10 - - - -
31/12:30am 23.9 E 8 11 1022.0 - 0.0 - Partly cloudy 10 - - - -
31/12:00am 23.9 E 8 11 1022.3 - 0.0 - Mostly clear 10 - - - -
 
Date/Time
EST
Temp

°C
Wind Pressure Rain
since 9am
mm
Weather Cloud Vis
km
Sea
Height
m
Swell
Dir
 
Speed
knots
Gust
knots
hPa Trend Height
m
Period
s
Dir
30/11:30pm 24.1 E 10 14 1022.1 - 0.0 - Partly cloudy 10 - - - -
30/11:00pm 24.1 E 9 12 1022.2 - 0.0 - Partly cloudy 10 - - - -
30/10:30pm 24.2 E 9 11 1022.5 - 0.0 - Partly cloudy 10 - - - -
30/10:00pm 24.2 E 8 11 1022.8 - 0.0 - Partly cloudy 10 - - - -
30/09:30pm 24.2 ESE 7 9 1022.9 - 0.0 - - 10 - - - -
30/09:00pm 24.1 ESE 7 9 1022.9 - 0.0 - Mostly clear 10 - - - -
30/08:30pm 23.9 ESE 7 9 1022.9 - 0.0 - - 10 - - - -
30/08:00pm 23.9 ESE 7 11 1022.7 - 0.0 - - 10 - - - -
30/07:30pm 24.0 ESE 7 10 1022.5 - 0.0 - Partly cloudy 10 - - - -
30/07:00pm 24.3 ESE 7 9 1022.3 - 0.0 - Partly cloudy 10 - - - -
30/06:30pm 24.3 E 7 9 1021.8 - 0.0 - Partly cloudy 10 - - - -
30/06:00pm 24.6 E 8 11 1021.3 - 0.0 - Mostly clear 10 - - - -
30/05:30pm 24.6 E 8 11 1021.0 - 0.0 - Partly cloudy 10 - - - -
30/05:00pm 24.8 E 8 11 1021.0 - 0.0 - Partly cloudy 10 - - - -
30/04:30pm 25.0 E 8 10 1020.6 - 0.0 - Partly cloudy 10 - - - -
30/04:00pm 25.3 E 8 11 1020.6 - 0.0 - - 10 - - - -
30/03:30pm 25.3 E 7 11 1020.4 - 0.0 - - 10 - - - -
30/03:00pm 27.1 E 9 11 1020.4 - 0.0 - - 10 - - - -
30/02:30pm 27.0 E 7 9 1020.6 - 0.0 - - 10 - - - -
30/02:00pm 26.5 E 9 11 1020.8 - 0.0 - - 10 - - - -
30/01:30pm 26.4 ENE 9 12 1021.2 - 0.0 - - 10 - - - -
30/01:00pm 28.1 E 10 13 1021.6 - 0.0 - - 10 - - - -
30/12:30pm 27.6 ENE 10 13 1021.8 - 0.0 - - 10 - - - -
30/12:00pm 27.5 E 10 12 1022.3 - 0.0 - - 10 - - - -
30/11:30am 27.9 ENE 9 13 1022.9 - 0.0 - Partly cloudy 10 - - - -
30/11:00am 27.4 E 9 11 1023.5 - 0.0 - Partly cloudy 10 - - - -
30/10:30am 28.1 ENE 9 12 1023.8 - 0.0 - Partly cloudy 10 - - - -
30/10:00am 27.0 ENE 10 13 1023.6 - 0.0 - Partly cloudy 10 - - - -
30/09:30am 26.9 E 10 13 1023.6 - 0.0 - - 10 - - - -
30/09:00am 26.6 E 8 11 1023.6 - 0.0 - - 10 - - - -
30/08:30am 25.1 E 10 14 1023.4 - 0.0 - Partly cloudy 10 - - - -
30/08:00am 24.8 E 9 12 1023.3 - 0.0 - Partly cloudy 10 - - - -
30/07:30am 24.8 E 9 11 1023.2 - 0.0 - Partly cloudy 10 - - - -
30/07:00am 24.5 E 10 13 1022.5 - 0.0 - Partly cloudy 10 - - - -
30/06:30am 24.2 E 7 10 1022.3 - 0.0 - Partly cloudy 10 - - - -
30/06:00am 23.8 E 9 13 1021.9 - 0.0 - Partly cloudy 10 - - - -
30/05:30am 23.8 E 9 11 1021.4 - 0.0 - Partly cloudy 10 - - - -
30/05:00am 23.8 ENE 9 12 1021.3 - 0.0 - Partly cloudy 10 - - - -
30/04:30am 23.5 ENE 9 12 1021.0 - 0.0 - Partly cloudy 10 - - - -
30/04:00am 23.6 E 11 13 1020.9 - 0.0 - Partly cloudy 10 - - - -
30/03:30am 23.1 ENE 10 12 1020.9 - 0.0 - Partly cloudy 10 - - - -
30/03:00am 20.7 NE 6 10 1021.2 - 0.0 - Mostly cloudy 10 - - - -
30/02:30am 19.4 WNW 4 6 1021.5 - 0.0 - Partly cloudy 10 - - - -
30/02:00am 20.4 NW 3 5 1021.6 - 0.0 - Partly cloudy 10 - - - -
30/01:30am 22.9 ENE 8 11 1021.7 - 0.0 - Partly cloudy 10 - - - -
30/01:00am 19.2 WNW 4 6 1021.9 - 0.0 - Partly cloudy 10 - - - -
30/12:30am 19.5 W 4 7 1022.3 - 0.0 - Partly cloudy 10 - - - -
30/12:00am 19.6 W 4 6 1022.4 - 0.0 - Partly cloudy 10 - - - -
 
Date/Time
EST
Temp

°C
Wind Pressure Rain
since 9am
mm
Weather Cloud Vis
km
Sea
Height
m
Swell
Dir
 
Speed
knots
Gust
knots
hPa Trend Height
m
Period
s
Dir
29/11:30pm 21.2 NW 4 7 1022.6 - 0.0 - Partly cloudy 10 - - - -
29/11:00pm 23.8 E 8 10 1022.5 - 0.0 - - 10 - - - -
29/10:30pm 23.9 E 9 13 1022.4 - 0.0 - - 10 - - - -
29/10:00pm 23.8 E 8 11 1022.6 - 0.0 - Partly cloudy 10 - - - -
29/09:30pm 23.9 E 8 11 1022.8 - 0.0 - Partly cloudy 10 - - - -
29/09:00pm 23.8 E 8 11 1022.9 - 0.0 - Mostly clear 10 - - - -
29/08:30pm 23.5 E 7 9 1022.9 - 0.0 - - 10 - - - -
29/08:00pm 23.8 ENE 8 10 1022.5 - 0.0 - - 10 - - - -
29/07:30pm 23.9 E 8 11 1022.3 - 0.0 - - 10 - - - -
29/07:00pm 24.1 E 9 12 1021.9 - 0.0 - - 10 - - - -
29/06:30pm 24.1 E 9 11 1021.6 - 0.0 - - 10 - - - -
29/06:00pm 24.4 E 8 11 1021.4 - 0.0 - - 10 - - - -
29/05:30pm 24.9 E 8 11 1021.3 - 0.0 - - 10 - - - -
29/05:00pm 25.4 E 8 11 1021.2 - 0.0 - - 10 - - - -
29/04:30pm 26.1 E 8 11 1021.2 - 0.0 - - 10 - - - -
29/04:00pm 26.5 E 8 11 1021.2 - 0.0 - - 10 - - - -
29/03:30pm 27.0 E 8 11 1020.9 - 0.0 - - 10 - - - -
29/03:00pm 27.1 E 9 12 1021.0 - 0.0 - - 10 - - - -
29/02:30pm 27.1 E 9 12 1021.0 - 0.0 - - 10 - - - -
29/02:00pm 27.2 E 10 13 1021.4 - 0.0 - - 10 - - - -
29/01:30pm 27.5 E 10 13 1021.6 - 0.0 - - 10 - - - -

Other Formats:

Comma delimited format used in spreadsheet applications
http://www.bom.gov.au/fwo/IDQ60701/IDQ60701.94569.axf

JavaScript Object Notation format (JSON) in row-major order
http://www.bom.gov.au/fwo/IDQ60701/IDQ60701.94569.json